sensor_id;sensor_type;location;lat;lon;timestamp;pressure;altitude;pressure_sealevel;temperature;humidity
69630;BME280;56857;52.212;5.496;2023-04-05T00:02:14;102605.81;;;4.45;100.00
69630;BME280;56857;52.212;5.496;2023-04-05T00:04:39;102608.84;;;4.37;100.00
69630;BME280;56857;52.212;5.496;2023-04-05T00:07:04;102601.31;;;4.31;100.00
69630;BME280;56857;52.212;5.496;2023-04-05T00:09:30;102599.84;;;4.25;100.00
69630;BME280;56857;52.212;5.496;2023-04-05T00:11:55;102590.56;;;4.20;100.00
69630;BME280;56857;52.212;5.496;2023-04-05T00:14:21;102592.59;;;4.14;100.00
69630;BME280;56857;52.212;5.496;2023-04-05T00:16:46;102599.03;;;4.09;100.00
69630;BME280;56857;52.212;5.496;2023-04-05T00:19:11;102589.63;;;4.05;100.00
69630;BME280;56857;52.212;5.496;2023-04-05T00:21:37;102588.97;;;4.01;100.00
69630;BME280;56857;52.212;5.496;2023-04-05T00:24:03;102590.81;;;3.99;100.00
69630;BME280;56857;52.212;5.496;2023-04-05T00:26:29;102593.59;;;3.96;100.00
69630;BME280;56857;52.212;5.496;2023-04-05T00:28:54;102592.06;;;3.92;100.00
69630;BME280;56857;52.212;5.496;2023-04-05T00:31:20;102590.56;;;3.88;100.00
69630;BME280;56857;52.212;5.496;2023-04-05T00:33:45;102587.22;;;3.84;100.00
69630;BME280;56857;52.212;5.496;2023-04-05T00:36:15;102586.66;;;3.79;100.00
69630;BME280;56857;52.212;5.496;2023-04-05T00:38:42;102591.22;;;3.76;100.00
69630;BME280;56857;52.212;5.496;2023-04-05T00:41:09;102589.66;;;3.71;100.00
69630;BME280;56857;52.212;5.496;2023-04-05T00:43:34;102586.28;;;3.69;100.00
69630;BME280;56857;52.212;5.496;2023-04-05T00:46:03;102586.47;;;3.66;100.00
69630;BME280;56857;52.212;5.496;2023-04-05T00:48:29;102578.66;;;3.65;100.00
69630;BME280;56857;52.212;5.496;2023-04-05T00:50:56;102574.41;;;3.62;100.00
69630;BME280;56857;52.212;5.496;2023-04-05T00:53:22;102582.44;;;3.59;100.00
69630;BME280;56857;52.212;5.496;2023-04-05T00:55:48;102584.38;;;3.56;100.00
69630;BME280;56857;52.212;5.496;2023-04-05T00:58:15;102581.84;;;3.54;100.00
69630;BME280;56857;52.212;5.496;2023-04-05T01:00:46;102576.78;;;3.51;100.00
69630;BME280;56857;52.212;5.496;2023-04-05T01:03:16;102578.63;;;3.49;100.00
69630;BME280;56857;52.212;5.496;2023-04-05T01:08:35;102574.38;;;3.46;100.00
69630;BME280;56857;52.212;5.496;2023-04-05T01:11:05;102567.38;;;3.47;100.00
69630;BME280;56857;52.212;5.496;2023-04-05T01:13:31;102570.84;;;3.47;100.00
69630;BME280;56857;52.212;5.496;2023-04-05T01:15:57;102564.66;;;3.48;100.00
69630;BME280;56857;52.212;5.496;2023-04-05T01:18:23;102560.44;;;3.46;100.00
69630;BME280;56857;52.212;5.496;2023-04-05T01:20:53;102556.13;;;3.45;100.00
69630;BME280;56857;52.212;5.496;2023-04-05T01:23:36;102551.03;;;3.42;100.00
69630;BME280;56857;52.212;5.496;2023-04-05T01:31:44;102552.69;;;3.27;100.00
69630;BME280;56857;52.212;5.496;2023-04-05T01:37:02;102547.22;;;3.14;100.00
69630;BME280;56857;52.212;5.496;2023-04-05T01:39:30;102546.53;;;3.11;100.00
69630;BME280;56857;52.212;5.496;2023-04-05T01:41:59;102545.91;;;3.06;100.00
69630;BME280;56857;52.212;5.496;2023-04-05T01:44:25;102547.84;;;3.02;100.00
69630;BME280;56857;52.212;5.496;2023-04-05T01:46:51;102543.72;;;2.98;100.00
69630;BME280;56857;52.212;5.496;2023-04-05T01:49:16;102537.78;;;2.94;100.00
69630;BME280;56857;52.212;5.496;2023-04-05T01:51:41;102536.25;;;2.90;100.00
69630;BME280;56857;52.212;5.496;2023-04-05T01:54:07;102539.09;;;2.86;100.00
69630;BME280;56857;52.212;5.496;2023-04-05T01:56:33;102534.16;;;2.79;100.00
69630;BME280;56857;52.212;5.496;2023-04-05T01:58:58;102536.94;;;2.76;100.00
69630;BME280;56857;52.212;5.496;2023-04-05T02:01:23;102537.91;;;2.74;100.00
69630;BME280;56857;52.212;5.496;2023-04-05T02:03:49;102525.75;;;2.73;100.00
69630;BME280;56857;52.212;5.496;2023-04-05T02:06:14;102525.06;;;2.69;100.00
69630;BME280;56857;52.212;5.496;2023-04-05T02:08:39;102528.78;;;2.65;100.00
69630;BME280;56857;52.212;5.496;2023-04-05T02:11:05;102517.53;;;2.63;100.00
69630;BME280;56857;52.212;5.496;2023-04-05T02:13:30;102522.06;;;2.60;100.00
69630;BME280;56857;52.212;5.496;2023-04-05T02:15:55;102526.53;;;2.58;100.00
69630;BME280;56857;52.212;5.496;2023-04-05T02:18:22;102513.59;;;2.54;100.00
69630;BME280;56857;52.212;5.496;2023-04-05T02:20:49;102517.19;;;2.52;100.00
69630;BME280;56857;52.212;5.496;2023-04-05T02:23:15;102517.34;;;2.49;100.00
69630;BME280;56857;52.212;5.496;2023-04-05T02:25:41;102513.97;;;2.47;100.00
69630;BME280;56857;52.212;5.496;2023-04-05T02:28:06;102511.41;;;2.45;100.00
69630;BME280;56857;52.212;5.496;2023-04-05T02:30:31;102519.41;;;2.42;100.00
69630;BME280;56857;52.212;5.496;2023-04-05T02:32:56;102516.06;;;2.40;100.00
69630;BME280;56857;52.212;5.496;2023-04-05T02:35:22;102516.13;;;2.39;100.00
69630;BME280;56857;52.212;5.496;2023-04-05T02:37:47;102514.50;;;2.36;100.00
69630;BME280;56857;52.212;5.496;2023-04-05T02:40:13;102505.78;;;2.36;100.00
69630;BME280;56857;52.212;5.496;2023-04-05T02:42:38;102503.25;;;2.34;100.00
69630;BME280;56857;52.212;5.496;2023-04-05T02:45:04;102516.50;;;2.31;100.00
69630;BME280;56857;52.212;5.496;2023-04-05T02:47:30;102508.72;;;2.29;100.00
69630;BME280;56857;52.212;5.496;2023-04-05T02:49:55;102506.19;;;2.28;100.00
69630;BME280;56857;52.212;5.496;2023-04-05T02:52:20;102504.56;;;2.25;100.00
69630;BME280;56857;52.212;5.496;2023-04-05T02:54:46;102499.41;;;2.24;100.00
69630;BME280;56857;52.212;5.496;2023-04-05T02:57:11;102506.38;;;2.23;100.00
69630;BME280;56857;52.212;5.496;2023-04-05T02:59:38;102496.06;;;2.20;100.00
69630;BME280;56857;52.212;5.496;2023-04-05T03:02:04;102492.75;;;2.17;100.00
69630;BME280;56857;52.212;5.496;2023-04-05T03:04:29;102491.13;;;2.14;100.00
69630;BME280;56857;52.212;5.496;2023-04-05T03:06:54;102494.78;;;2.12;100.00
69630;BME280;56857;52.212;5.496;2023-04-05T03:09:20;102492.31;;;2.08;100.00
69630;BME280;56857;52.212;5.496;2023-04-05T03:11:45;102488.91;;;2.06;100.00
69630;BME280;56857;52.212;5.496;2023-04-05T03:14:11;102485.50;;;2.04;100.00
69630;BME280;56857;52.212;5.496;2023-04-05T03:16:37;102487.41;;;2.01;100.00
69630;BME280;56857;52.212;5.496;2023-04-05T03:19:04;102482.34;;;1.98;100.00
69630;BME280;56857;52.212;5.496;2023-04-05T03:21:29;102482.28;;;1.99;100.00
69630;BME280;56857;52.212;5.496;2023-04-05T03:23:54;102486.72;;;1.97;100.00
69630;BME280;56857;52.212;5.496;2023-04-05T03:26:20;102486.03;;;1.94;100.00
69630;BME280;56857;52.212;5.496;2023-04-05T03:28:45;102479.16;;;1.91;100.00
69630;BME280;56857;52.212;5.496;2023-04-05T03:31:10;102480.16;;;1.89;100.00
69630;BME280;56857;52.212;5.496;2023-04-05T03:33:39;102474.16;;;1.87;100.00
69630;BME280;56857;52.212;5.496;2023-04-05T03:36:04;102464.69;;;1.84;100.00
69630;BME280;56857;52.212;5.496;2023-04-05T03:38:30;102479.53;;;1.83;100.00
69630;BME280;56857;52.212;5.496;2023-04-05T03:40:55;102475.31;;;1.81;100.00
69630;BME280;56857;52.212;5.496;2023-04-05T03:43:21;102474.50;;;1.79;100.00
69630;BME280;56857;52.212;5.496;2023-04-05T03:45:46;102474.50;;;1.79;100.00
69630;BME280;56857;52.212;5.496;2023-04-05T03:48:11;102469.44;;;1.76;100.00
69630;BME280;56857;52.212;5.496;2023-04-05T03:50:36;102476.53;;;1.74;100.00
69630;BME280;56857;52.212;5.496;2023-04-05T03:53:02;102470.50;;;1.72;100.00
69630;BME280;56857;52.212;5.496;2023-04-05T03:55:27;102472.28;;;1.71;100.00
69630;BME280;56857;52.212;5.496;2023-04-05T03:57:53;102461.88;;;1.70;100.00
69630;BME280;56857;52.212;5.496;2023-04-05T04:00:18;102468.88;;;1.69;100.00
69630;BME280;56857;52.212;5.496;2023-04-05T04:02:44;102466.25;;;1.69;100.00
69630;BME280;56857;52.212;5.496;2023-04-05T04:05:11;102462.09;;;1.65;100.00
69630;BME280;56857;52.212;5.496;2023-04-05T04:07:36;102462.25;;;1.62;100.00
69630;BME280;56857;52.212;5.496;2023-04-05T04:10:04;102461.41;;;1.61;100.00
69630;BME280;56857;52.212;5.496;2023-04-05T04:12:29;102463.22;;;1.59;100.00
69630;BME280;56857;52.212;5.496;2023-04-05T04:14:55;102468.53;;;1.58;100.00
69630;BME280;56857;52.212;5.496;2023-04-05T04:19:52;102463.47;;;1.55;100.00
69630;BME280;56857;52.212;5.496;2023-04-05T04:22:17;102473.91;;;1.55;100.00
69630;BME280;56857;52.212;5.496;2023-04-05T04:24:43;102468.69;;;1.55;100.00
69630;BME280;56857;52.212;5.496;2023-04-05T04:27:08;102468.75;;;1.53;100.00
69630;BME280;56857;52.212;5.496;2023-04-05T04:29:35;102458.28;;;1.53;100.00
69630;BME280;56857;52.212;5.496;2023-04-05T04:32:00;102465.28;;;1.53;100.00
69630;BME280;56857;52.212;5.496;2023-04-05T04:34:26;102467.06;;;1.52;100.00
69630;BME280;56857;52.212;5.496;2023-04-05T04:36:51;102470.50;;;1.53;100.00
69630;BME280;56857;52.212;5.496;2023-04-05T04:39:16;102468.81;;;1.52;100.00
69630;BME280;56857;52.212;5.496;2023-04-05T04:41:43;102454.88;;;1.51;100.00
69630;BME280;56857;52.212;5.496;2023-04-05T04:44:09;102456.78;;;1.48;100.00
69630;BME280;56857;52.212;5.496;2023-04-05T04:46:34;102460.34;;;1.47;100.00
69630;BME280;56857;52.212;5.496;2023-04-05T04:49:00;102463.88;;;1.46;100.00
69630;BME280;56857;52.212;5.496;2023-04-05T04:51:25;102466.53;;;1.44;100.00
69630;BME280;56857;52.212;5.496;2023-04-05T04:53:51;102465.69;;;1.44;100.00
69630;BME280;56857;52.212;5.496;2023-04-05T04:56:16;102464.84;;;1.43;100.00
69630;BME280;56857;52.212;5.496;2023-04-05T04:58:42;102463.94;;;1.44;100.00
69630;BME280;56857;52.212;5.496;2023-04-05T05:01:07;102464.84;;;1.43;100.00
69630;BME280;56857;52.212;5.496;2023-04-05T05:03:36;102461.53;;;1.39;100.00
69630;BME280;56857;52.212;5.496;2023-04-05T05:06:01;102462.38;;;1.40;100.00
69630;BME280;56857;52.212;5.496;2023-04-05T05:08:28;102461.59;;;1.38;100.00
69630;BME280;56857;52.212;5.496;2023-04-05T05:10:53;102457.31;;;1.37;100.00
69630;BME280;56857;52.212;5.496;2023-04-05T05:13:18;102459.81;;;1.38;100.00
69630;BME280;56857;52.212;5.496;2023-04-05T05:15:43;102451.09;;;1.39;100.00
69630;BME280;56857;52.212;5.496;2023-04-05T05:18:09;102448.47;;;1.39;100.00
69630;BME280;56857;52.212;5.496;2023-04-05T05:20:34;102454.47;;;1.42;100.00
69630;BME280;56857;52.212;5.496;2023-04-05T05:23:00;102454.31;;;1.45;100.00
69630;BME280;56857;52.212;5.496;2023-04-05T05:25:26;102452.59;;;1.45;100.00
69630;BME280;56857;52.212;5.496;2023-04-05T05:27:52;102446.44;;;1.46;100.00
69630;BME280;56857;52.212;5.496;2023-04-05T05:30:17;102448.25;;;1.44;100.00
69630;BME280;56857;52.212;5.496;2023-04-05T05:32:43;102447.34;;;1.45;100.00
69630;BME280;56857;52.212;5.496;2023-04-05T05:35:08;102446.34;;;1.48;100.00
69630;BME280;56857;52.212;5.496;2023-04-05T05:37:34;102448.91;;;1.49;100.00
69630;BME280;56857;52.212;5.496;2023-04-05T05:39:59;102450.72;;;1.47;100.00
69630;BME280;56857;52.212;5.496;2023-04-05T05:42:25;102454.13;;;1.49;100.00
69630;BME280;56857;52.212;5.496;2023-04-05T05:44:51;102453.97;;;1.52;100.00
69630;BME280;56857;52.212;5.496;2023-04-05T05:47:16;102447.00;;;1.53;100.00
69630;BME280;56857;52.212;5.496;2023-04-05T05:49:44;102447.81;;;1.53;100.00
69630;BME280;56857;52.212;5.496;2023-04-05T05:52:11;102448.63;;;1.55;100.00
69630;BME280;56857;52.212;5.496;2023-04-05T05:54:39;102450.16;;;1.59;100.00
69630;BME280;56857;52.212;5.496;2023-04-05T05:57:06;102459.53;;;1.63;100.00
69630;BME280;56857;52.212;5.496;2023-04-05T05:59:31;102463.78;;;1.66;100.00
69630;BME280;56857;52.212;5.496;2023-04-05T06:01:57;102462.72;;;1.70;100.00
69630;BME280;56857;52.212;5.496;2023-04-05T06:04:22;102456.50;;;1.73;100.00
69630;BME280;56857;52.212;5.496;2023-04-05T06:06:47;102458.13;;;1.75;100.00
69630;BME280;56857;52.212;5.496;2023-04-05T06:09:13;102455.31;;;1.80;100.00
69630;BME280;56857;52.212;5.496;2023-04-05T06:11:39;102460.31;;;1.84;100.00
69630;BME280;56857;52.212;5.496;2023-04-05T06:14:04;102457.47;;;1.89;100.00
69630;BME280;56857;52.212;5.496;2023-04-05T06:16:29;102459.09;;;1.92;100.00
69630;BME280;56857;52.212;5.496;2023-04-05T06:18:55;102462.41;;;1.95;100.00
69630;BME280;56857;52.212;5.496;2023-04-05T06:21:20;102463.13;;;1.99;100.00
69630;BME280;56857;52.212;5.496;2023-04-05T06:23:47;102464.72;;;2.01;100.00
69630;BME280;56857;52.212;5.496;2023-04-05T06:26:16;102462.84;;;2.05;100.00
69630;BME280;56857;52.212;5.496;2023-04-05T06:28:43;102466.13;;;2.08;100.00
69630;BME280;56857;52.212;5.496;2023-04-05T06:31:11;102471.28;;;2.10;100.00
69630;BME280;56857;52.212;5.496;2023-04-05T06:33:36;102464.13;;;2.14;100.00
69630;BME280;56857;52.212;5.496;2023-04-05T06:36:02;102464.75;;;2.19;100.00
69630;BME280;56857;52.212;5.496;2023-04-05T06:38:27;102469.69;;;2.25;100.00
69630;BME280;56857;52.212;5.496;2023-04-05T06:40:53;102462.59;;;2.27;100.00
69630;BME280;56857;52.212;5.496;2023-04-05T06:43:19;102466.94;;;2.28;100.00
69630;BME280;56857;52.212;5.496;2023-04-05T06:45:44;102468.16;;;2.38;100.00
69630;BME280;56857;52.212;5.496;2023-04-05T06:48:10;102461.84;;;2.42;100.00
69630;BME280;56857;52.212;5.496;2023-04-05T06:50:35;102468.63;;;2.46;100.00
69630;BME280;56857;52.212;5.496;2023-04-05T06:53:01;102471.78;;;2.53;100.00
69630;BME280;56857;52.212;5.496;2023-04-05T06:55:27;102471.34;;;2.62;100.00
69630;BME280;56857;52.212;5.496;2023-04-05T06:57:52;102463.22;;;2.67;100.00
69630;BME280;56857;52.212;5.496;2023-04-05T07:00:18;102465.53;;;2.73;100.00
69630;BME280;56857;52.212;5.496;2023-04-05T07:02:43;102462.44;;;2.82;100.00
69630;BME280;56857;52.212;5.496;2023-04-05T07:05:08;102459.41;;;2.90;100.00
69630;BME280;56857;52.212;5.496;2023-04-05T07:07:43;102461.81;;;2.94;100.00
69630;BME280;56857;52.212;5.496;2023-04-05T07:10:09;102461.50;;;3.00;100.00
69630;BME280;56857;52.212;5.496;2023-04-05T07:12:36;102460.41;;;3.05;100.00
69630;BME280;56857;52.212;5.496;2023-04-05T07:15:02;102462.78;;;3.09;100.00
69630;BME280;56857;52.212;5.496;2023-04-05T07:17:29;102465.94;;;3.16;100.00
69630;BME280;56857;52.212;5.496;2023-04-05T07:19:55;102454.25;;;3.21;100.00
69630;BME280;56857;52.212;5.496;2023-04-05T07:22:20;102465.19;;;3.30;100.00
69630;BME280;56857;52.212;5.496;2023-04-05T07:24:47;102460.56;;;3.35;100.00
69630;BME280;56857;52.212;5.496;2023-04-05T07:27:14;102462.84;;;3.41;100.00
69630;BME280;56857;52.212;5.496;2023-04-05T07:29:40;102454.56;;;3.48;100.00
69630;BME280;56857;52.212;5.496;2023-04-05T07:32:06;102459.28;;;3.58;100.00
69630;BME280;56857;52.212;5.496;2023-04-05T07:34:32;102451.75;;;3.67;100.00
69630;BME280;56857;52.212;5.496;2023-04-05T07:36:59;102449.56;;;3.76;100.00
69630;BME280;56857;52.212;5.496;2023-04-05T07:39:24;102454.22;;;3.86;100.00
69630;BME280;56857;52.212;5.496;2023-04-05T07:41:49;102452.69;;;3.98;100.00
69630;BME280;56857;52.212;5.496;2023-04-05T07:44:15;102454.00;;;4.05;100.00
69630;BME280;56857;52.212;5.496;2023-04-05T07:46:40;102453.56;;;4.13;100.00
69630;BME280;56857;52.212;5.496;2023-04-05T07:49:05;102452.03;;;4.25;100.00
69630;BME280;56857;52.212;5.496;2023-04-05T07:51:31;102445.47;;;4.32;100.00
69630;BME280;56857;52.212;5.496;2023-04-05T07:53:56;102438.78;;;4.42;100.00
69630;BME280;56857;52.212;5.496;2023-04-05T07:56:21;102439.91;;;4.52;100.00
69630;BME280;56857;52.212;5.496;2023-04-05T07:58:47;102443.59;;;4.64;100.00
69630;BME280;56857;52.212;5.496;2023-04-05T08:01:12;102439.38;;;4.76;100.00
69630;BME280;56857;52.212;5.496;2023-04-05T08:03:37;102437.59;;;4.91;100.00
69630;BME280;56857;52.212;5.496;2023-04-05T08:06:13;102444.66;;;5.04;100.00
69630;BME280;56857;52.212;5.496;2023-04-05T08:08:40;102441.25;;;5.17;100.00
69630;BME280;56857;52.212;5.496;2023-04-05T08:11:05;102443.06;;;5.30;100.00
69630;BME280;56857;52.212;5.496;2023-04-05T08:13:31;102443.00;;;5.45;100.00
69630;BME280;56857;52.212;5.496;2023-04-05T08:15:56;102441.97;;;5.62;100.00
69630;BME280;56857;52.212;5.496;2023-04-05T08:18:22;102440.31;;;5.73;100.00
69630;BME280;56857;52.212;5.496;2023-04-05T08:20:54;102448.94;;;5.90;100.00
69630;BME280;56857;52.212;5.496;2023-04-05T08:23:25;102444.28;;;6.08;100.00
69630;BME280;56857;52.212;5.496;2023-04-05T08:25:51;102439.88;;;6.21;100.00
69630;BME280;56857;52.212;5.496;2023-04-05T08:28:17;102446.69;;;6.38;100.00
69630;BME280;56857;52.212;5.496;2023-04-05T08:30:42;102449.22;;;6.52;100.00
69630;BME280;56857;52.212;5.496;2023-04-05T08:33:07;102434.38;;;6.64;100.00
69630;BME280;56857;52.212;5.496;2023-04-05T08:35:36;102445.47;;;6.82;100.00
69630;BME280;56857;52.212;5.496;2023-04-05T08:38:02;102433.09;;;6.95;100.00
69630;BME280;56857;52.212;5.496;2023-04-05T08:40:42;102434.13;;;7.18;100.00
69630;BME280;56857;52.212;5.496;2023-04-05T08:46:07;102431.56;;;7.42;100.00
69630;BME280;56857;52.212;5.496;2023-04-05T08:48:34;102427.19;;;7.54;100.00
69630;BME280;56857;52.212;5.496;2023-04-05T08:50:59;102424.47;;;7.79;100.00
69630;BME280;56857;52.212;5.496;2023-04-05T08:53:25;102428.16;;;8.01;100.00
69630;BME280;56857;52.212;5.496;2023-04-05T08:55:56;102420.50;;;8.09;100.00
69630;BME280;56857;52.212;5.496;2023-04-05T08:58:24;102425.09;;;8.18;100.00
69630;BME280;56857;52.212;5.496;2023-04-05T09:00:50;102417.25;;;8.41;100.00
69630;BME280;56857;52.212;5.496;2023-04-05T09:03:21;102418.88;;;8.54;100.00
69630;BME280;56857;52.212;5.496;2023-04-05T09:05:50;102421.75;;;8.63;100.00
69630;BME280;56857;52.212;5.496;2023-04-05T09:08:17;102414.56;;;8.65;100.00
69630;BME280;56857;52.212;5.496;2023-04-05T09:10:43;102416.03;;;8.80;100.00
69630;BME280;56857;52.212;5.496;2023-04-05T09:13:09;102412.44;;;8.92;100.00
69630;BME280;56857;52.212;5.496;2023-04-05T09:15:38;102413.50;;;9.12;100.00
69630;BME280;56857;52.212;5.496;2023-04-05T09:18:04;102416.00;;;9.25;99.92
69630;BME280;56857;52.212;5.496;2023-04-05T09:20:31;102422.47;;;9.43;98.97
69630;BME280;56857;52.212;5.496;2023-04-05T09:22:56;102419.94;;;9.53;91.91
69630;BME280;56857;52.212;5.496;2023-04-05T09:27:56;102419.38;;;9.82;93.12
69630;BME280;56857;52.212;5.496;2023-04-05T09:30:23;102415.16;;;10.11;90.62
69630;BME280;56857;52.212;5.496;2023-04-05T09:32:51;102414.38;;;10.32;89.75
69630;BME280;56857;52.212;5.496;2023-04-05T09:35:25;102413.38;;;10.54;90.43
69630;BME280;56857;52.212;5.496;2023-04-05T09:37:52;102414.28;;;10.64;88.59
69630;BME280;56857;52.212;5.496;2023-04-05T09:40:19;102409.13;;;10.62;86.82
69630;BME280;56857;52.212;5.496;2023-04-05T09:42:45;102405.88;;;10.59;84.84
69630;BME280;56857;52.212;5.496;2023-04-05T09:45:11;102409.75;;;10.76;86.42
69630;BME280;56857;52.212;5.496;2023-04-05T09:47:36;102408.16;;;10.94;86.66
69630;BME280;56857;52.212;5.496;2023-04-05T09:52:33;102402.16;;;11.02;78.44
69630;BME280;56857;52.212;5.496;2023-04-05T09:55:01;102406.41;;;11.14;79.93
69630;BME280;56857;52.212;5.496;2023-04-05T09:57:27;102404.88;;;11.21;77.54
69630;BME280;56857;52.212;5.496;2023-04-05T09:59:53;102401.81;;;11.16;72.13
69630;BME280;56857;52.212;5.496;2023-04-05T10:02:20;102395.28;;;11.30;75.26
69630;BME280;56857;52.212;5.496;2023-04-05T10:04:46;102399.50;;;11.52;75.56
69630;BME280;56857;52.212;5.496;2023-04-05T10:07:17;102392.69;;;11.78;73.62
69630;BME280;56857;52.212;5.496;2023-04-05T10:09:46;102397.03;;;11.70;60.20
69630;BME280;56857;52.212;5.496;2023-04-05T10:12:23;102387.63;;;11.66;70.51
69630;BME280;56857;52.212;5.496;2023-04-05T10:14:49;102377.47;;;11.90;68.00
69630;BME280;56857;52.212;5.496;2023-04-05T10:20:16;102387.81;;;12.03;68.87
69630;BME280;56857;52.212;5.496;2023-04-05T10:23:21;102373.81;;;12.20;64.24
69630;BME280;56857;52.212;5.496;2023-04-05T10:31:31;102368.19;;;12.33;54.26
69630;BME280;56857;52.212;5.496;2023-04-05T10:34:07;102363.44;;;12.27;55.34
69630;BME280;56857;52.212;5.496;2023-04-05T10:36:47;102359.97;;;12.26;52.92
69630;BME280;56857;52.212;5.496;2023-04-05T10:39:59;102354.34;;;12.29;56.76
69630;BME280;56857;52.212;5.496;2023-04-05T10:42:26;102352.44;;;12.59;61.68
69630;BME280;56857;52.212;5.496;2023-04-05T10:44:57;102354.84;;;12.52;56.19
69630;BME280;56857;52.212;5.496;2023-04-05T10:47:27;102355.28;;;12.38;54.72
69630;BME280;56857;52.212;5.496;2023-04-05T10:49:55;102349.56;;;12.43;52.88
69630;BME280;56857;52.212;5.496;2023-04-05T10:52:21;102345.47;;;12.39;54.92
69630;BME280;56857;52.212;5.496;2023-04-05T10:54:48;102345.69;;;12.65;55.59
69630;BME280;56857;52.212;5.496;2023-04-05T10:57:14;102349.06;;;12.94;56.08
69630;BME280;56857;52.212;5.496;2023-04-05T10:59:44;102344.38;;;13.06;55.29
69630;BME280;56857;52.212;5.496;2023-04-05T11:02:10;102339.81;;;13.16;52.08
69630;BME280;56857;52.212;5.496;2023-04-05T11:04:36;102340.88;;;13.23;51.71
69630;BME280;56857;52.212;5.496;2023-04-05T11:07:19;102335.31;;;13.44;51.72
69630;BME280;56857;52.212;5.496;2023-04-05T11:09:50;102334.81;;;13.59;50.54
69630;BME280;56857;52.212;5.496;2023-04-05T11:12:16;102331.22;;;13.50;49.98
69630;BME280;56857;52.212;5.496;2023-04-05T11:14:41;102328.78;;;13.57;49.50
69630;BME280;56857;52.212;5.496;2023-04-05T11:17:26;102333.81;;;13.78;49.90
69630;BME280;56857;52.212;5.496;2023-04-05T11:20:00;102325.13;;;14.02;50.45
69630;BME280;56857;52.212;5.496;2023-04-05T11:22:27;102325.41;;;14.17;49.86
69630;BME280;56857;52.212;5.496;2023-04-05T11:24:55;102323.22;;;14.38;48.84
69630;BME280;56857;52.212;5.496;2023-04-05T11:27:31;102321.28;;;14.48;47.48
69630;BME280;56857;52.212;5.496;2023-04-05T11:30:00;102315.59;;;14.17;45.33
69630;BME280;56857;52.212;5.496;2023-04-05T11:32:40;102322.00;;;14.32;47.82
69630;BME280;56857;52.212;5.496;2023-04-05T11:35:07;102309.50;;;14.59;47.28
69630;BME280;56857;52.212;5.496;2023-04-05T11:37:55;102310.81;;;14.97;44.13
69630;BME280;56857;52.212;5.496;2023-04-05T11:40:31;102309.97;;;14.97;46.05
69630;BME280;56857;52.212;5.496;2023-04-05T11:43:04;102309.84;;;14.98;44.71
69630;BME280;56857;52.212;5.496;2023-04-05T11:45:31;102303.34;;;15.01;44.59
69630;BME280;56857;52.212;5.496;2023-04-05T11:47:58;102303.00;;;15.12;43.94
69630;BME280;56857;52.212;5.496;2023-04-05T11:50:25;102290.16;;;15.07;43.67
69630;BME280;56857;52.212;5.496;2023-04-05T11:53:10;102294.94;;;14.88;41.55
69630;BME280;56857;52.212;5.496;2023-04-05T11:55:44;102291.72;;;14.42;42.63
69630;BME280;56857;52.212;5.496;2023-04-05T11:58:23;102283.63;;;14.51;44.59
69630;BME280;56857;52.212;5.496;2023-04-05T12:01:00;102287.69;;;14.64;43.68
69630;BME280;56857;52.212;5.496;2023-04-05T12:03:26;102285.97;;;14.54;43.31
69630;BME280;56857;52.212;5.496;2023-04-05T12:05:53;102284.97;;;14.98;43.34
69630;BME280;56857;52.212;5.496;2023-04-05T12:08:20;102286.19;;;15.20;42.86
69630;BME280;56857;52.212;5.496;2023-04-05T12:10:55;102277.50;;;15.18;42.55
69630;BME280;56857;52.212;5.496;2023-04-05T12:13:27;102279.69;;;15.39;42.64
69630;BME280;56857;52.212;5.496;2023-04-05T12:15:53;102269.81;;;15.47;42.79
69630;BME280;56857;52.212;5.496;2023-04-05T12:18:21;102272.00;;;15.52;42.37
69630;BME280;56857;52.212;5.496;2023-04-05T12:20:46;102255.47;;;15.57;43.19
69630;BME280;56857;52.212;5.496;2023-04-05T12:23:12;102257.00;;;15.67;42.51
69630;BME280;56857;52.212;5.496;2023-04-05T12:25:37;102266.00;;;15.74;41.16
69630;BME280;56857;52.212;5.496;2023-04-05T12:28:04;102255.47;;;15.89;38.33
69630;BME280;56857;52.212;5.496;2023-04-05T12:30:31;102262.59;;;16.13;38.44
69630;BME280;56857;52.212;5.496;2023-04-05T12:32:56;102257.91;;;16.07;39.06
69630;BME280;56857;52.212;5.496;2023-04-05T12:35:28;102259.91;;;16.21;39.02
69630;BME280;56857;52.212;5.496;2023-04-05T12:37:56;102256.41;;;16.60;37.76
69630;BME280;56857;52.212;5.496;2023-04-05T12:40:22;102253.84;;;17.06;37.34
69630;BME280;56857;52.212;5.496;2023-04-05T12:42:48;102251.81;;;17.31;37.91
69630;BME280;56857;52.212;5.496;2023-04-05T12:45:13;102252.75;;;17.38;35.46
69630;BME280;56857;52.212;5.496;2023-04-05T12:47:58;102255.91;;;17.42;35.94
69630;BME280;56857;52.212;5.496;2023-04-05T12:50:28;102245.75;;;17.37;36.14
69630;BME280;56857;52.212;5.496;2023-04-05T12:52:56;102241.25;;;17.53;35.93
69630;BME280;56857;52.212;5.496;2023-04-05T12:55:22;102248.78;;;17.72;35.29
69630;BME280;56857;52.212;5.496;2023-04-05T12:57:51;102234.88;;;17.54;34.55
69630;BME280;56857;52.212;5.496;2023-04-05T13:00:17;102232.34;;;17.37;34.76
69630;BME280;56857;52.212;5.496;2023-04-05T13:02:47;102229.25;;;17.26;34.58
69630;BME280;56857;52.212;5.496;2023-04-05T13:05:13;102223.94;;;16.95;33.00
69630;BME280;56857;52.212;5.496;2023-04-05T13:07:38;102218.34;;;16.73;34.49
69630;BME280;56857;52.212;5.496;2023-04-05T13:10:04;102212.09;;;16.89;34.32
69630;BME280;56857;52.212;5.496;2023-04-05T13:12:29;102211.81;;;16.84;33.99
69630;BME280;56857;52.212;5.496;2023-04-05T13:14:55;102207.81;;;16.72;33.58
69630;BME280;56857;52.212;5.496;2023-04-05T13:17:20;102209.16;;;16.67;34.46
69630;BME280;56857;52.212;5.496;2023-04-05T13:19:45;102207.72;;;16.96;34.40
69630;BME280;56857;52.212;5.496;2023-04-05T13:22:14;102198.09;;;16.71;34.88